• Join FlightAware (Why Join?)
  • Login
  • US Flag 
01:09AM EDT


 

Airport Tracker/Info


-or-


 

Live Flight TrackerFlight Track Log ✈ CPZ5718 ✈ 23-Jun-2013 ✈ KALB - KMSP

Flight Track Log - Related Links

Times and Time Zones

All times are in EDT time to prevent confusion due to time zone crossing. See the CPZ5718 flight status page for this flight to view local times or setup timezone preferences in your user account.

Time Position Orientation Groundspeed Altitude Reporting Facility
EDT Latitude Longitude Course Direction KTS MPH feet Rate Location/Type
09:27AM 42.7214 -73.8078 291° West 151 174 1,300  Level Boston Center
09:28AM 42.7250 -73.8589 276° West 206 237 2,800 1,620 Climbing Boston Center
09:30AM 42.9070 -74.3447 289° West  Level FlightAware Approximate
09:30AM 42.7972 -73.9086 333° Northwest 253 291 5,400  Level Boston Center
09:31AM 42.9429 -74.4881 289° West  Level FlightAware Approximate
09:31AM 42.8675 -73.9642 330° Northwest 258 297 8,500  Level Boston Center
09:32AM 42.9836 -74.6336 291° West  Level FlightAware Approximate
09:32AM 42.9333 -74.0197 328° Northwest 272 313 10,600  Level Boston Center
09:33AM 43.0250 -74.7788 291° West  Level FlightAware Approximate
09:33AM 43.0097 -74.0783 331° Northwest 299 344 12,900  Level Boston Center
09:34AM 43.0858 -74.1431 328° Northwest 315 362 14,900 2,040 Climbing Boston Center
09:35AM 43.1492 -74.2331 314° West 315 362 17,000 1,800 Climbing Boston Center
09:36AM 43.1722 -74.3503 285° West 309 356 18,500 1,560 Climbing Boston Center
09:37AM 43.1908 -74.4792 281° West 330 380 20,200 1,500 Climbing Boston Center
09:38AM 43.2133 -74.6108 283° West 346 398 21,600 1,440 Climbing Boston Center
09:39AM 43.2358 -74.7458 283° West 359 413 23,100 1,500 Climbing Boston Center
09:40AM 43.2578 -74.8864 282° West 365 420 24,600 1,380 Climbing Boston Center
09:41AM 43.2778 -75.0211 282° West 370 426 25,900 1,020 Climbing Boston Center
09:42AM 43.2961 -75.1331 283° West 370 426 26,700 900 Climbing Boston Center
09:43AM 43.3233 -75.3028 282° West 389 448 27,800 960 Climbing Boston Center
09:44AM 43.3464 -75.4525 282° West 402 463 28,700 840 Climbing Boston Center
09:45AM 43.3694 -75.6019 282° West 402 463 29,500 720 Climbing Boston Center
09:46AM 43.3922 -75.7547 282° West 402 463 30,200 660 Climbing Boston Center
09:47AM 43.4169 -75.9106 282° West 408 470 30,900 780 Climbing Boston Center
09:48AM 43.4389 -76.0692 281° West 420 483 31,800 780 Climbing Boston Center
09:49AM 43.4633 -76.2222 282° West 420 483 32,500 720 Climbing Boston Center
09:50AM 43.4850 -76.3781 281° West 420 483 33,300 720 Climbing Boston Center
09:51AM 43.5067 -76.5314 281° West 413 475 34,000 300 Climbing Boston Center
09:52AM 43.5281 -76.6903 281° West 413 475 34,000  Level Boston Center
09:53AM 43.5514 -76.8497 281° West 419 482 34,000  Level Boston Center
09:55AM 43.5833 -77.2167 277° West 430 495 34,000  Level Toronto Center
09:56AM 43.6000 -77.3833 278° West 430 495 34,000  Level Toronto Center
09:57AM 43.6500 -77.5333 295° West 430 495 34,000  Level Toronto Center
09:58AM 43.6667 -77.7000 278° West 430 495 34,000  Level Toronto Center
09:59AM 43.6833 -77.8500 279° West 430 495 34,000  Level Toronto Center
10:00AM 43.7000 -78.0167 278° West 430 495 34,000  Level Toronto Center
10:01AM 43.7167 -78.1833 278° West 420 483 34,000  Level Toronto Center
10:02AM 43.7333 -78.3333 279° West 420 483 34,000  Level Toronto Center
10:03AM 43.7667 -78.5167 284° West 430 495 34,000  Level Toronto Center
10:04AM 43.7833 -78.6667 279° West 430 495 34,000  Level Toronto Center
10:05AM 43.8000 -78.8167 279° West 430 495 34,000  Level Toronto Center
10:06AM 43.8333 -79.0167 283° West 430 495 34,000  Level Toronto Center
10:07AM 43.8500 -79.1500 280° West 430 495 34,000  Level Toronto Center
10:08AM 43.8667 -79.3333 277° West 430 495 34,000  Level Toronto Center
10:09AM 43.8833 -79.4667 280° West 430 495 34,000  Level Toronto Center
10:10AM 43.9000 -79.6500 277° West 430 495 34,000  Level Toronto Center
10:11AM 43.9167 -79.8167 278° West 430 495 34,000  Level Toronto Center
10:12AM 43.9333 -79.9833 278° West 430 495 34,000  Level Toronto Center
10:13AM 43.9500 -80.1500 278° West 430 495 34,000  Level Toronto Center
10:14AM 43.9667 -80.3000 279° West 430 495 34,000  Level Toronto Center
10:15AM 44.0000 -80.4667 286° West 430 495 34,000  Level Toronto Center
10:16AM 44.0167 -80.6333 278° West 430 495 34,000  Level Toronto Center
10:17AM 44.0333 -80.8000 278° West 430 495 34,000  Level Toronto Center
10:18AM 44.0333 -80.9500 270° West 430 495 34,000  Level Toronto Center
10:19AM 44.0500 -81.1333 277° West 430 495 34,000  Level Toronto Center
10:20AM 44.0667 -81.3000 278° West 430 495 34,000  Level Toronto Center
10:21AM 44.0833 -81.4667 278° West 430 495 34,000  Level Toronto Center
10:22AM 44.1000 -81.6333 278° West 430 495 34,000  Level Toronto Center
10:23AM 44.1333 -81.8000 286° West 430 495 34,000  Level Toronto Center
10:24AM 44.1333 -81.9500 270° West 440 506 34,000  Level Toronto Center
10:25AM 44.1500 -82.1167 278° West 430 495 34,000  Level Toronto Center
10:26AM 44.1667 -82.3000 277° West 430 495 34,000  Level Toronto Center
10:27AM 44.1833 -82.4500 279° West 430 495 34,000  Level Toronto Center
10:28AM 44.2000 -82.6333 277° West 430 495 34,000  Level Toronto Center
10:29AM 44.2000 -82.8000 270° West 430 495 34,000  Level Toronto Center
10:30AM 44.2167 -82.9667 278° West 430 495 34,000  Level Toronto Center
10:31AM 44.2333 -83.1167 279° West 430 495 34,000  Level Toronto Center
10:32AM 44.2500 -83.2833 278° West 430 495 34,000  Level Toronto Center
10:33AM 44.2667 -83.4500 278° West 430 495 34,000  Level Toronto Center
10:34AM 44.2833 -83.6167 278° West 430 495 34,000  Level Toronto Center
10:35AM 44.2833 -83.7833 270° West 440 506 34,000  Level Toronto Center
10:36AM 44.3061 -83.8531 295° West 432 497 34,000  Level Minneapolis Center
10:37AM 44.3175 -84.0192 276° West 432 497 34,000  Level Minneapolis Center
10:38AM 44.3328 -84.2192 276° West 432 497 34,000  Level Minneapolis Center
10:39AM 44.3461 -84.3858 276° West 433 498 34,000  Level Minneapolis Center
10:40AM 44.3606 -84.5856 276° West 432 497 34,000  Level Minneapolis Center
10:41AM 44.3714 -84.7514 275° West 430 495 34,000  Level Minneapolis Center
10:42AM 44.3833 -84.9181 276° West 431 496 34,000  Level Minneapolis Center
10:43AM 44.3933 -85.0822 275° West 428 493 34,000  Level Minneapolis Center
10:44AM 44.4053 -85.2475 276° West 428 493 34,000  Level Minneapolis Center
10:45AM 44.4153 -85.4144 275° West 429 494 34,000  Level Minneapolis Center
10:46AM 44.4247 -85.5808 275° West 430 495 34,000  Level Minneapolis Center
10:47AM 44.4358 -85.7475 275° West 428 493 34,000  Level Minneapolis Center
10:48AM 44.4469 -85.9469 275° West 426 490 34,000  Level Minneapolis Center
10:49AM 44.4569 -86.1142 275° West 428 493 34,000 -180 Level Minneapolis Center
10:50AM 44.4681 -86.3139 275° West 426 490 33,700 -600 Descending Minneapolis Center
10:52AM 44.4769 -86.4828 274° West 432 497 32,700 -780 Descending Minneapolis Center
10:53AM 44.4881 -86.6839 274° West 432 497 32,000 -360 Descending Minneapolis Center
10:54AM 44.4964 -86.8514 274° West 431 496 32,000  Level Minneapolis Center
10:55AM 44.5042 -87.0192 274° West 433 498 32,000  Level Minneapolis Center
10:56AM 44.5128 -87.1892 274° West 436 502 32,000  Level Minneapolis Center
10:57AM 44.5211 -87.3569 274° West 434 499 32,000  Level Minneapolis Center
10:58AM 44.5283 -87.5278 273° West 438 504 32,000  Level Minneapolis Center
10:59AM 44.5364 -87.6967 274° West 436 502 32,000  Level Minneapolis Center
11:00AM 44.5428 -87.8658 273° West 435 501 32,000  Level Minneapolis Center
11:01AM 44.5481 -88.0386 273° West 428 493 32,000  Level Minneapolis Center
11:02AM 44.5569 -88.2056 274° West 429 494 32,000  Level Minneapolis Center
11:03AM 44.5792 -88.4003 279° West 434 499 32,000  Level Minneapolis Center
11:04AM 44.5986 -88.5664 279° West 433 498 32,000  Level Minneapolis Center
11:05AM 44.6183 -88.7342 279° West 435 501 32,000  Level Minneapolis Center
11:06AM 44.6372 -88.9044 279° West 440 506 32,000  Level Minneapolis Center
11:07AM 44.6561 -89.0739 279° West 441 507 32,000  Level Minneapolis Center
11:08AM 44.6742 -89.2483 278° West 449 517 32,000  Level Minneapolis Center
11:09AM 44.6933 -89.4164 279° West 443 510 32,000  Level Minneapolis Center
11:10AM 44.7144 -89.6106 279° West 436 502 32,000  Level Minneapolis Center
11:11AM 44.7319 -89.7767 278° West 432 497 32,000  Level Minneapolis Center
11:12AM 44.7486 -89.9422 278° West 430 495 32,000  Level Minneapolis Center
11:13AM 44.7658 -90.1089 278° West 430 495 32,000  Level Minneapolis Center
11:14AM 44.7833 -90.2761 278° West 433 498 32,000  Level Minneapolis Center
11:15AM 44.7997 -90.4456 278° West 437 503 32,000  Level Minneapolis Center
11:16AM 44.8178 -90.6297 278° West 434 499 32,000  Level Minneapolis Center
11:17AM 44.8342 -90.7936 278° West 427 491 32,000  Level Minneapolis Center
11:18AM 44.8492 -90.9550 278° West 420 483 32,000 -180 Level Minneapolis Center
11:19AM 44.8628 -91.1142 277° West 414 476 31,700 -1,500 Descending Minneapolis Center
11:20AM 44.8772 -91.2747 277° West 415 478 29,000 -2,640 Descending Minneapolis Center
11:21AM 44.8914 -91.4303 277° West 406 467 26,300 -2,700 Descending Minneapolis Center
11:22AM 44.9142 -91.5814 282° West 397 457 23,600 -2,940 Descending Minneapolis Center
11:23AM 44.9483 -91.7578 285° West 392 451 20,300 -2,880 Descending Minneapolis Center
11:24AM 44.9772 -91.9017 286° West 386 444 17,700 -2,400 Descending Minneapolis Center
11:25AM 45.0025 -92.0342 285° West 353 406 15,400 -2,340 Descending Minneapolis Center
11:26AM 45.0267 -92.1667 285° West 351 404 13,000 -2,100 Descending Minneapolis Center
11:27AM 45.0478 -92.2950 283° West 339 390 11,100 -1,020 Descending Minneapolis Center
11:28AM 45.0300 -92.4089 258° West 294 338 11,000 -60 Descending Minneapolis Center
11:29AM 45.0119 -92.5233 257° West 301 346 11,000  Level Minneapolis Center
11:30AM 44.9906 -92.6586 257° West 298 343 11,000  Level Minneapolis Center
11:32AM 44.9725 -92.7714 257° West 296 341 11,000 -240 Level Minneapolis Center
11:33AM 44.9536 -92.8886 257° West 306 352 10,600 -840 Descending Minneapolis Center
11:34AM 44.9364 -92.9953 257° West 282 325 9,300 -1,200 Descending Minneapolis Center
11:35AM 44.9506 -93.0911 282° West 288 331 8,200 -900 Descending Minneapolis Center
11:36AM 44.9969 -93.1775 307° West 281 323 7,500 -1,200 Descending Minneapolis Center
11:37AM 45.0319 -93.2708 298° West 273 314 5,800 -1,740 Descending Minneapolis Center
11:38AM 45.0556 -93.3756 288° West 238 274 4,000 -900 Descending Minneapolis Center
11:39AM 45.0056 -93.3989 198° South 196 226 4,000 -480 Level Minneapolis Center
11:40AM 44.9556 -93.3681 156° South 204 235 3,100 -900 Descending Minneapolis Center